Time;durP1;ratioP1;P1;durP2;ratioP2;P2;SDS_P1;SDS_P2;PMS_P1;PMS_P2;Temp;Humidity;BMP_temperature;BMP_pressure;BME280_temperature;BME280_humidity;BME280_pressure;Samples;Min_cycle;Max_cycle;Signal;HPM_P1;HPM_P2
2022/06/20 00:01:53;;;;;;;9.57;4.55;;;;;;;;;;5031881;28;20036;-86
2022/06/20 00:04:19;;;;;;;7.93;4.47;;;;;;;;;;5014338;28;20128;-86
2022/06/20 00:06:45;;;;;;;10.15;4.50;;;;;;;;;;5043282;28;20026;-86
2022/06/20 00:09:12;;;;;;;16.55;4.55;;;;;;;;;;5035408;28;20040;-86
2022/06/20 00:11:44;;;;;;;9.13;4.18;;;;;;;;;;5039163;28;20037;-85
2022/06/20 00:14:15;;;;;;;17.42;5.38;;;;;;;;;;5022095;28;20076;-85
2022/06/20 00:16:41;;;;;;;14.15;5.78;;;;;;;;;;5052245;28;20025;-85
2022/06/20 00:19:09;;;;;;;11.48;4.85;;;;;;;;;;5020364;28;20033;-85
2022/06/20 00:21:35;;;;;;;14.85;5.25;;;;;;;;;;5018703;28;20061;-85
2022/06/20 00:24:27;;;;;;;11.25;5.10;;;;;;;;;;5045722;28;20028;-86
2022/06/20 00:26:53;;;;;;;12.20;4.90;;;;;;;;;;5011056;28;20029;-85
2022/06/20 00:29:19;;;;;;;9.38;4.72;;;;;;;;;;5034885;28;20037;-85
2022/06/20 00:31:44;;;;;;;7.80;4.60;;;;;;;;;;5043702;28;20017;-85
2022/06/20 00:35:06;;;;;;;14.35;5.60;;;;;;;;;;5029540;28;20018;-85
2022/06/20 00:37:31;;;;;;;12.87;4.67;;;;;;;;;;5021131;28;20040;-85
2022/06/20 00:46:51;;;;;;;16.92;5.53;;;;;;;;;;5035036;28;20062;-85
2022/06/20 00:50:13;;;;;;;15.20;5.18;;;;;;;;;;5038937;28;20386;-85
2022/06/20 00:53:11;;;;;;;10.80;4.97;;;;;;;;;;5024195;28;20110;-84
2022/06/20 00:55:45;;;;;;;13.63;4.97;;;;;;;;;;5043155;28;20033;-84
2022/06/20 01:05:04;;;;;;;14.68;5.78;;;;;;;;;;5036753;28;20033;-85
2022/06/20 01:07:53;;;;;;;20.27;7.68;;;;;;;;;;5035067;28;20025;-84
2022/06/20 01:10:21;;;;;;;20.08;7.10;;;;;;;;;;5033281;28;20029;-85
2022/06/20 01:12:51;;;;;;;13.85;6.13;;;;;;;;;;5017608;28;20086;-85
2022/06/20 01:15:23;;;;;;;15.77;5.82;;;;;;;;;;5044925;28;20025;-85
2022/06/20 01:17:50;;;;;;;15.57;6.75;;;;;;;;;;5034437;28;20033;-85
2022/06/20 01:20:16;;;;;;;13.82;6.50;;;;;;;;;;5020129;28;20068;-85
2022/06/20 01:22:42;;;;;;;13.60;6.00;;;;;;;;;;5027927;28;20029;-85
2022/06/20 01:25:41;;;;;;;13.52;7.13;;;;;;;;;;5039643;28;20124;-85
2022/06/20 01:28:11;;;;;;;13.63;6.38;;;;;;;;;;5020470;28;20110;-85
2022/06/20 01:30:43;;;;;;;16.77;6.70;;;;;;;;;;5023112;28;20144;-85
2022/06/20 01:33:11;;;;;;;16.92;7.25;;;;;;;;;;5036602;28;20035;-85
2022/06/20 01:38:22;;;;;;;18.58;7.32;;;;;;;;;;5044045;28;20533;-85
2022/06/20 01:43:34;;;;;;;16.15;7.55;;;;;;;;;;5036323;28;20124;-84
2022/06/20 01:46:04;;;;;;;12.25;6.85;;;;;;;;;;5028603;28;20025;-84
2022/06/20 01:48:32;;;;;;;11.23;6.63;;;;;;;;;;5023288;28;20044;-85
2022/06/20 01:50:58;;;;;;;11.77;7.10;;;;;;;;;;5023847;28;20098;-84
2022/06/20 01:53:31;;;;;;;16.10;7.10;;;;;;;;;;5038850;28;20019;-85
2022/06/20 01:55:58;;;;;;;11.80;7.05;;;;;;;;;;5047863;28;20037;-85
2022/06/20 01:58:31;;;;;;;15.15;6.93;;;;;;;;;;5042121;28;20510;-85
2022/06/20 02:00:59;;;;;;;16.65;7.43;;;;;;;;;;5027166;28;20029;-85
2022/06/20 02:03:25;;;;;;;21.95;7.93;;;;;;;;;;5039728;28;20383;-85
2022/06/20 02:05:54;;;;;;;14.43;7.32;;;;;;;;;;5025471;28;20522;-85
2022/06/20 02:08:22;;;;;;;12.55;6.97;;;;;;;;;;5030093;28;20033;-85
2022/06/20 02:10:54;;;;;;;16.00;7.88;;;;;;;;;;5043034;28;20085;-85
2022/06/20 02:13:23;;;;;;;22.65;6.80;;;;;;;;;;5037270;28;20026;-85
2022/06/20 02:15:51;;;;;;;11.30;7.25;;;;;;;;;;5027248;28;20113;-85
2022/06/20 02:18:17;;;;;;;14.02;6.70;;;;;;;;;;5049605;28;20036;-85
2022/06/20 02:20:46;;;;;;;14.98;6.70;;;;;;;;;;5021355;28;20079;-85
2022/06/20 02:23:17;;;;;;;14.02;7.15;;;;;;;;;;5041809;28;20036;-85
2022/06/20 02:25:45;;;;;;;13.20;7.43;;;;;;;;;;5050049;28;20034;-86
2022/06/20 02:28:16;;;;;;;12.27;7.20;;;;;;;;;;5048906;28;20172;-85
2022/06/20 02:30:42;;;;;;;12.80;6.55;;;;;;;;;;5028450;28;20115;-85
2022/06/20 02:33:14;;;;;;;10.85;7.50;;;;;;;;;;5036037;28;20033;-85
2022/06/20 02:35:39;;;;;;;10.95;7.05;;;;;;;;;;5022939;28;20037;-85
2022/06/20 02:38:05;;;;;;;10.10;7.00;;;;;;;;;;5035594;28;20048;-87
2022/06/20 02:40:31;;;;;;;14.63;6.90;;;;;;;;;;5023914;28;20025;-85
2022/06/20 02:43:00;;;;;;;15.90;7.65;;;;;;;;;;5055399;28;20022;-85
2022/06/20 02:45:27;;;;;;;17.15;7.75;;;;;;;;;;5034441;28;20017;-85
2022/06/20 02:47:57;;;;;;;11.13;7.43;;;;;;;;;;5017973;28;20103;-85
2022/06/20 02:50:27;;;;;;;14.77;7.93;;;;;;;;;;5014213;28;20025;-85
2022/06/20 02:53:17;;;;;;;14.15;7.93;;;;;;;;;;5040108;28;20029;-85
2022/06/20 02:55:44;;;;;;;13.48;7.75;;;;;;;;;;5048497;28;20021;-85
2022/06/20 02:58:16;;;;;;;18.85;8.00;;;;;;;;;;5042447;28;20049;-85
2022/06/20 03:01:02;;;;;;;10.23;6.53;;;;;;;;;;5024894;28;20031;-85
2022/06/20 03:03:36;;;;;;;15.18;7.25;;;;;;;;;;5045453;28;20575;-85
2022/06/20 03:06:04;;;;;;;17.45;7.03;;;;;;;;;;5039906;28;20078;-85
2022/06/20 03:08:31;;;;;;;14.55;7.47;;;;;;;;;;5040075;28;20022;-85
2022/06/20 03:11:04;;;;;;;14.75;7.22;;;;;;;;;;5021297;28;20036;-85
2022/06/20 03:13:30;;;;;;;12.25;5.95;;;;;;;;;;5031741;28;20032;-85
2022/06/20 03:15:57;;;;;;;20.30;6.93;;;;;;;;;;5037512;28;20028;-85
2022/06/20 03:18:23;;;;;;;11.60;6.93;;;;;;;;;;5046727;28;20017;-84
2022/06/20 03:20:49;;;;;;;15.95;6.82;;;;;;;;;;5028465;28;20093;-84
2022/06/20 03:23:21;;;;;;;16.80;7.03;;;;;;;;;;5038123;28;20060;-84
2022/06/20 03:25:48;;;;;;;14.85;6.97;;;;;;;;;;5040401;28;20427;-85
2022/06/20 03:28:18;;;;;;;12.95;6.57;;;;;;;;;;5042990;28;20098;-85
2022/06/20 03:30:43;;;;;;;13.75;6.85;;;;;;;;;;5043167;28;20017;-85
2022/06/20 03:33:13;;;;;;;9.85;6.07;;;;;;;;;;5044990;28;20032;-85
2022/06/20 03:35:44;;;;;;;14.00;7.40;;;;;;;;;;5040113;28;20538;-85
2022/06/20 03:38:14;;;;;;;16.85;7.47;;;;;;;;;;5024179;28;20494;-85
2022/06/20 03:40:39;;;;;;;13.82;7.20;;;;;;;;;;5050294;28;20021;-85
2022/06/20 03:43:07;;;;;;;15.52;6.72;;;;;;;;;;5038155;28;20379;-85
2022/06/20 03:45:38;;;;;;;12.18;6.57;;;;;;;;;;5038413;28;20021;-86
2022/06/20 03:48:10;;;;;;;12.90;6.77;;;;;;;;;;5049422;28;20028;-86
2022/06/20 03:50:42;;;;;;;12.00;6.00;;;;;;;;;;5037651;28;20056;-85
2022/06/20 03:53:24;;;;;;;12.27;6.40;;;;;;;;;;5047401;28;20036;-85
2022/06/20 03:56:01;;;;;;;;;;;;;;;;;;5019234;28;20021;-85
2022/06/20 03:58:41;;;;;;;9.15;5.18;;;;;;;;;;5021568;28;19984;-85
2022/06/20 04:01:14;;;;;;;13.15;5.47;;;;;;;;;;5033040;28;20030;-85
2022/06/20 04:03:52;;;;;;;14.18;6.13;;;;;;;;;;5053074;28;20035;-85
2022/06/20 04:06:27;;;;;;;12.52;5.72;;;;;;;;;;5045842;28;20021;-85
2022/06/20 04:11:57;;;;;;;18.23;5.75;;;;;;;;;;5040917;28;20035;-85
2022/06/20 04:14:29;;;;;;;14.35;5.22;;;;;;;;;;5032636;28;20036;-85
2022/06/20 04:18:27;;;;;;;11.13;4.68;;;;;;;;;;5032189;28;20065;-85
2022/06/20 04:19:49;;;;;;;10.23;4.80;;;;;;;;;;5040851;28;20052;-85
2022/06/20 04:22:19;;;;;;;10.15;4.82;;;;;;;;;;5052447;28;20368;-85
2022/06/20 04:24:56;;;;;;;13.30;5.13;;;;;;;;;;5057813;28;20025;-85
2022/06/20 04:27:29;;;;;;;9.02;4.93;;;;;;;;;;5040705;28;20025;-85
2022/06/20 04:30:01;;;;;;;11.40;4.72;;;;;;;;;;5034497;28;20044;-85
2022/06/20 04:32:33;;;;;;;11.30;4.60;;;;;;;;;;5042109;28;20045;-85
2022/06/20 04:35:10;;;;;;;14.20;4.90;;;;;;;;;;5039351;28;20097;-85
2022/06/20 04:37:42;;;;;;;14.23;5.35;;;;;;;;;;5038631;28;20029;-85
2022/06/20 04:40:37;;;;;;;14.25;4.82;;;;;;;;;;5043596;28;20039;-84
2022/06/20 04:43:08;;;;;;;8.25;4.20;;;;;;;;;;5025505;28;20025;-85
2022/06/20 04:45:59;;;;;;;10.50;4.45;;;;;;;;;;5039926;28;20072;-84
2022/06/20 04:48:26;;;;;;;12.20;4.77;;;;;;;;;;5043939;28;20168;-85
2022/06/20 04:50:58;;;;;;;9.32;4.30;;;;;;;;;;5049192;28;20108;-85
2022/06/20 04:53:27;;;;;;;9.10;4.22;;;;;;;;;;5051190;28;20661;-85
2022/06/20 04:55:55;;;;;;;10.15;3.92;;;;;;;;;;5038401;28;20120;-85
2022/06/20 04:58:31;;;;;;;11.43;4.55;;;;;;;;;;5036444;28;20048;-85
2022/06/20 05:00:57;;;;;;;12.73;3.70;;;;;;;;;;5045715;28;20017;-85
2022/06/20 05:03:27;;;;;;;10.55;4.45;;;;;;;;;;5030267;28;20359;-85
2022/06/20 05:05:56;;;;;;;8.82;4.00;;;;;;;;;;5052259;28;20036;-85
2022/06/20 05:08:38;;;;;;;8.00;4.30;;;;;;;;;;5044260;28;20040;-85
2022/06/20 05:11:08;;;;;;;6.10;3.90;;;;;;;;;;5028307;28;20470;-85
2022/06/20 05:13:57;;;;;;;11.38;4.32;;;;;;;;;;5039301;28;20112;-85
2022/06/20 05:16:27;;;;;;;11.90;4.05;;;;;;;;;;5050257;28;20028;-85
2022/06/20 05:18:57;;;;;;;7.20;3.60;;;;;;;;;;5044468;28;20026;-85
2022/06/20 05:21:31;;;;;;;17.70;4.38;;;;;;;;;;5048099;28;20024;-85
2022/06/20 05:24:05;;;;;;;14.35;3.70;;;;;;;;;;5029694;28;20044;-86
2022/06/20 05:26:35;;;;;;;8.45;4.03;;;;;;;;;;5041776;28;20451;-85
2022/06/20 05:29:06;;;;;;;8.52;3.20;;;;;;;;;;5027476;28;20048;-85
2022/06/20 05:31:39;;;;;;;10.75;3.17;;;;;;;;;;5027530;28;20030;-86
2022/06/20 05:34:26;;;;;;;8.15;3.17;;;;;;;;;;5037153;28;20021;-84
2022/06/20 05:37:12;;;;;;;8.10;3.45;;;;;;;;;;5045108;28;20033;-83
2022/06/20 05:39:44;;;;;;;8.38;3.42;;;;;;;;;;5038623;28;20391;-82
2022/06/20 05:42:15;;;;;;;11.82;3.70;;;;;;;;;;5025025;28;20112;-83
2022/06/20 05:44:40;;;;;;;8.55;3.63;;;;;;;;;;5025223;28;20021;-83
2022/06/20 05:47:15;;;;;;;10.13;4.15;;;;;;;;;;5031167;28;20033;-83
2022/06/20 05:49:57;;;;;;;9.43;3.28;;;;;;;;;;5034746;28;20123;-83
2022/06/20 05:52:25;;;;;;;6.22;3.20;;;;;;;;;;5039996;28;20029;-84
2022/06/20 05:55:03;;;;;;;7.57;3.20;;;;;;;;;;5028119;28;20423;-83
2022/06/20 05:57:32;;;;;;;6.68;3.53;;;;;;;;;;5033112;28;20056;-84
2022/06/20 06:00:04;;;;;;;7.57;3.28;;;;;;;;;;5031471;28;20419;-84
2022/06/20 06:02:39;;;;;;;10.82;4.30;;;;;;;;;;5044131;28;20021;-83
2022/06/20 06:05:26;;;;;;;12.48;4.38;;;;;;;;;;5041845;28;20029;-85
2022/06/20 06:07:58;;;;;;;7.93;3.60;;;;;;;;;;5014892;28;20022;-87
2022/06/20 06:10:47;;;;;;;7.30;3.50;;;;;;;;;;5017618;28;20487;-83
2022/06/20 06:13:30;;;;;;;10.00;3.92;;;;;;;;;;5017785;28;20040;-85
2022/06/20 06:19:35;;;;;;;8.10;3.13;;;;;;;;;;5044879;28;20663;-85
2022/06/20 06:22:05;;;;;;;16.63;4.38;;;;;;;;;;5033312;28;20035;-85
2022/06/20 06:24:34;;;;;;;10.82;3.65;;;;;;;;;;5043012;28;20033;-86
2022/06/20 06:27:01;;;;;;;9.60;3.55;;;;;;;;;;5033304;28;20079;-85
2022/06/20 06:29:38;;;;;;;11.25;3.42;;;;;;;;;;5038408;28;20029;-85
2022/06/20 06:32:13;;;;;;;11.60;4.00;;;;;;;;;;5042091;28;20048;-85
2022/06/20 06:34:43;;;;;;;9.25;3.42;;;;;;;;;;5029418;28;20505;-85
2022/06/20 06:37:16;;;;;;;9.85;3.92;;;;;;;;;;5047503;28;20042;-85
2022/06/20 06:40:25;;;;;;;10.50;3.40;;;;;;;;;;5022641;28;20033;-85
2022/06/20 06:42:55;;;;;;;12.65;3.92;;;;;;;;;;5036987;28;20025;-86
2022/06/20 06:45:24;;;;;;;11.18;4.40;;;;;;;;;;5040476;28;20036;-86
2022/06/20 06:48:21;;;;;;;9.23;4.43;;;;;;;;;;5018712;28;20336;-86
2022/06/20 06:50:53;;;;;;;13.35;3.70;;;;;;;;;;5024387;28;20025;-86
2022/06/20 06:53:39;;;;;;;9.43;3.33;;;;;;;;;;5035232;28;20040;-86
2022/06/20 06:56:46;;;;;;;9.15;3.20;;;;;;;;;;5045279;28;20037;-86
2022/06/20 07:00:12;;;;;;;11.60;3.45;;;;;;;;;;5029382;28;20178;-86
2022/06/20 07:02:42;;;;;;;13.13;4.07;;;;;;;;;;4984995;28;20038;-86
2022/06/20 07:05:28;;;;;;;6.35;3.50;;;;;;;;;;5037081;28;20025;-86
2022/06/20 07:08:14;;;;;;;9.60;4.25;;;;;;;;;;5040874;28;20025;-86
2022/06/20 07:11:04;;;;;;;9.88;3.42;;;;;;;;;;5038628;28;20100;-86
2022/06/20 07:13:44;;;;;;;6.93;3.58;;;;;;;;;;5054471;28;20059;-86
2022/06/20 07:16:33;;;;;;;6.47;3.45;;;;;;;;;;5051807;28;20048;-86
2022/06/20 07:19:00;;;;;;;12.68;3.47;;;;;;;;;;5033709;28;20052;-86
2022/06/20 07:21:28;;;;;;;8.95;3.17;;;;;;;;;;5043260;28;20033;-86
2022/06/20 07:23:59;;;;;;;10.30;3.78;;;;;;;;;;5048780;28;20037;-87
2022/06/20 07:26:35;;;;;;;10.98;4.03;;;;;;;;;;5057225;28;20029;-86
2022/06/20 07:29:11;;;;;;;9.25;3.90;;;;;;;;;;5033048;28;20041;-87
2022/06/20 07:31:47;;;;;;;5.85;3.47;;;;;;;;;;5054631;28;20041;-86
2022/06/20 07:34:24;;;;;;;10.15;3.85;;;;;;;;;;5035655;28;20041;-86
2022/06/20 07:37:05;;;;;;;10.95;3.65;;;;;;;;;;5017855;28;20537;-86
2022/06/20 07:39:37;;;;;;;8.63;3.90;;;;;;;;;;5029433;28;20060;-86
2022/06/20 07:42:14;;;;;;;13.65;4.00;;;;;;;;;;5034360;28;20017;-86
2022/06/20 07:44:44;;;;;;;11.35;3.88;;;;;;;;;;5035112;28;20025;-86
2022/06/20 07:47:18;;;;;;;12.93;3.72;;;;;;;;;;5032615;28;20017;-87
2022/06/20 07:49:53;;;;;;;9.23;4.47;;;;;;;;;;5033723;28;20043;-87
2022/06/20 07:52:25;;;;;;;9.10;3.60;;;;;;;;;;5044766;28;20031;-85
2022/06/20 07:54:55;;;;;;;;;;;;;;;;;;5031231;28;20021;-86
2022/06/20 07:57:25;;;;;;;13.30;3.58;;;;;;;;;;5017208;28;19913;-87
2022/06/20 08:00:17;;;;;;;10.95;3.70;;;;;;;;;;5032712;28;20083;-86
2022/06/20 08:02:53;;;;;;;7.40;3.55;;;;;;;;;;5023272;28;20499;-86
2022/06/20 08:05:25;;;;;;;14.70;3.58;;;;;;;;;;5043905;28;20045;-87
2022/06/20 08:08:06;;;;;;;10.73;3.30;;;;;;;;;;5010008;28;20117;-86
2022/06/20 08:10:37;;;;;;;9.15;3.55;;;;;;;;;;5021990;28;20091;-86
2022/06/20 08:13:21;;;;;;;14.50;3.78;;;;;;;;;;5041871;28;20377;-86
2022/06/20 08:16:04;;;;;;;10.40;3.88;;;;;;;;;;5033197;28;20036;-86
2022/06/20 08:18:30;;;;;;;11.50;3.70;;;;;;;;;;5040022;28;20044;-86
2022/06/20 08:21:17;;;;;;;7.72;3.75;;;;;;;;;;5046019;28;20033;-87
2022/06/20 08:23:52;;;;;;;6.13;3.60;;;;;;;;;;5040099;28;20033;-86
2022/06/20 08:26:23;;;;;;;12.65;3.63;;;;;;;;;;5041657;28;20041;-86
2022/06/20 08:28:53;;;;;;;9.90;4.05;;;;;;;;;;5019980;28;20029;-86
2022/06/20 08:31:27;;;;;;;6.70;3.35;;;;;;;;;;5042096;28;20036;-86
2022/06/20 08:34:11;;;;;;;9.77;3.75;;;;;;;;;;5042060;28;20149;-86
2022/06/20 08:36:52;;;;;;;9.90;3.75;;;;;;;;;;5036914;28;20022;-87
2022/06/20 08:39:35;;;;;;;14.55;3.70;;;;;;;;;;5016161;28;20034;-85
2022/06/20 08:42:19;;;;;;;15.38;4.22;;;;;;;;;;5033945;28;20045;-86
2022/06/20 08:44:48;;;;;;;11.05;3.45;;;;;;;;;;5016382;28;20041;-86
2022/06/20 08:47:30;;;;;;;12.60;4.50;;;;;;;;;;5035998;28;20036;-86
2022/06/20 08:50:04;;;;;;;10.55;3.50;;;;;;;;;;5016720;28;20029;-86
2022/06/20 08:53:24;;;;;;;9.02;3.90;;;;;;;;;;5017525;28;20025;-87
2022/06/20 08:56:17;;;;;;;7.30;3.33;;;;;;;;;;4929180;29;20548;-86
2022/06/20 08:59:06;;;;;;;10.55;3.97;;;;;;;;;;5034090;28;20044;-87
2022/06/20 09:02:13;;;;;;;6.65;3.60;;;;;;;;;;5031966;28;20017;-86
2022/06/20 09:05:00;;;;;;;7.38;3.45;;;;;;;;;;5016828;28;20037;-86
2022/06/20 09:08:07;;;;;;;9.32;3.33;;;;;;;;;;5033009;28;20391;-85
2022/06/20 09:11:05;;;;;;;11.23;3.33;;;;;;;;;;5012639;28;20040;-87
2022/06/20 09:13:37;;;;;;;9.48;3.60;;;;;;;;;;5017202;28;20550;-88
2022/06/20 09:16:13;;;;;;;10.35;3.90;;;;;;;;;;5033811;28;20025;-86
2022/06/20 09:19:07;;;;;;;5.07;2.92;;;;;;;;;;5032092;28;20587;-86
2022/06/20 09:21:54;;;;;;;13.23;3.40;;;;;;;;;;5040194;28;20379;-86
2022/06/20 09:24:50;;;;;;;10.52;3.65;;;;;;;;;;5031635;28;20083;-85
2022/06/20 09:27:29;;;;;;;11.45;4.07;;;;;;;;;;5034859;28;20406;-86
2022/06/20 09:30:03;;;;;;;6.93;3.78;;;;;;;;;;5029987;28;20589;-87
2022/06/20 09:32:38;;;;;;;7.40;3.47;;;;;;;;;;5039314;28;20056;-86
2022/06/20 09:35:24;;;;;;;7.78;3.40;;;;;;;;;;5017653;28;20120;-86
2022/06/20 09:38:14;;;;;;;6.35;3.25;;;;;;;;;;5040740;28;20021;-86
2022/06/20 09:40:48;;;;;;;5.72;3.38;;;;;;;;;;5035698;28;20037;-86
2022/06/20 09:43:40;;;;;;;9.93;3.75;;;;;;;;;;5036084;28;20059;-86
2022/06/20 09:46:28;;;;;;;12.60;3.35;;;;;;;;;;5040754;28;20056;-86
2022/06/20 09:49:06;;;;;;;10.02;3.42;;;;;;;;;;5031644;28;20040;-86
2022/06/20 09:51:39;;;;;;;7.22;3.60;;;;;;;;;;5030195;28;20021;-86
2022/06/20 09:54:31;;;;;;;7.22;3.50;;;;;;;;;;5034792;28;20075;-86
2022/06/20 09:57:34;;;;;;;6.35;3.08;;;;;;;;;;5016372;28;20079;-85
2022/06/20 10:00:06;;;;;;;9.40;3.03;;;;;;;;;;5029270;28;20029;-86
2022/06/20 10:02:56;;;;;;;7.50;3.22;;;;;;;;;;5031321;28;20105;-86
2022/06/20 10:05:52;;;;;;;8.93;3.05;;;;;;;;;;5017086;28;20413;-85
2022/06/20 10:08:43;;;;;;;10.52;3.65;;;;;;;;;;5011341;28;20044;-86
2022/06/20 10:11:18;;;;;;;9.23;3.40;;;;;;;;;;5005791;28;20042;-86
2022/06/20 10:13:54;;;;;;;9.38;3.75;;;;;;;;;;5036695;28;20040;-86
2022/06/20 10:16:26;;;;;;;12.82;3.42;;;;;;;;;;5014590;28;20390;-86
2022/06/20 10:19:07;;;;;;;7.72;3.90;;;;;;;;;;5028745;28;20030;-86
2022/06/20 10:21:41;;;;;;;10.18;3.45;;;;;;;;;;5025430;28;20025;-85
2022/06/20 10:24:45;;;;;;;14.57;4.45;;;;;;;;;;5038117;28;20048;-86
2022/06/20 10:27:43;;;;;;;6.75;3.22;;;;;;;;;;5040680;28;20029;-87
2022/06/20 10:30:17;;;;;;;8.77;3.50;;;;;;;;;;5038052;28;20022;-85
2022/06/20 10:32:53;;;;;;;7.85;3.22;;;;;;;;;;5047873;28;20013;-85
2022/06/20 10:35:57;;;;;;;6.80;3.10;;;;;;;;;;5044084;28;20025;-87
2022/06/20 10:38:33;;;;;;;7.35;3.25;;;;;;;;;;5023540;28;20025;-86
2022/06/20 10:41:06;;;;;;;9.43;3.38;;;;;;;;;;5022930;28;20129;-84
2022/06/20 10:44:10;;;;;;;8.10;3.40;;;;;;;;;;5019493;28;20051;-87
2022/06/20 10:46:47;;;;;;;7.70;3.88;;;;;;;;;;5020621;28;20021;-86
2022/06/20 10:49:19;;;;;;;6.03;3.53;;;;;;;;;;5027468;28;20151;-85
2022/06/20 10:52:03;;;;;;;;;;;;;;;;;;5043022;28;20017;-85
2022/06/20 10:54:29;;;;;;;6.78;3.30;;;;;;;;;;5023246;28;19913;-86
2022/06/20 10:57:00;;;;;;;8.35;3.35;;;;;;;;;;5033935;28;20029;-85
2022/06/20 10:59:37;;;;;;;11.13;3.95;;;;;;;;;;5035745;28;20466;-85
2022/06/20 11:02:29;;;;;;;4.95;3.42;;;;;;;;;;5037398;28;20376;-84
2022/06/20 11:05:17;;;;;;;7.95;3.33;;;;;;;;;;5026582;28;20028;-84
2022/06/20 11:08:13;;;;;;;6.70;3.60;;;;;;;;;;5041366;28;20025;-84
2022/06/20 11:11:07;;;;;;;10.25;3.22;;;;;;;;;;5015206;28;20029;-85
2022/06/20 11:13:36;;;;;;;13.80;3.40;;;;;;;;;;5018839;28;20037;-85
2022/06/20 11:16:02;;;;;;;8.20;3.53;;;;;;;;;;5013485;28;20079;-86
2022/06/20 11:18:43;;;;;;;8.85;3.53;;;;;;;;;;5023959;28;20017;-86
2022/06/20 11:21:25;;;;;;;6.30;3.58;;;;;;;;;;5033644;28;20025;-86
2022/06/20 11:24:13;;;;;;;7.03;3.45;;;;;;;;;;5048058;28;20053;-84
2022/06/20 11:27:20;;;;;;;6.97;3.65;;;;;;;;;;5060924;28;20017;-83
2022/06/20 11:30:04;;;;;;;7.50;3.45;;;;;;;;;;5005464;28;20051;-85
2022/06/20 11:32:48;;;;;;;6.32;3.03;;;;;;;;;;5038934;28;20026;-86
2022/06/20 11:35:48;;;;;;;7.80;3.33;;;;;;;;;;5029382;28;20364;-85
2022/06/20 11:38:38;;;;;;;7.07;3.35;;;;;;;;;;5039537;28;20086;-85
2022/06/20 11:41:15;;;;;;;6.97;3.40;;;;;;;;;;5040130;28;20047;-85
2022/06/20 11:44:06;;;;;;;8.88;2.92;;;;;;;;;;5040322;28;20463;-85
2022/06/20 11:47:09;;;;;;;7.15;2.80;;;;;;;;;;5037734;28;20384;-86
2022/06/20 11:49:43;;;;;;;8.20;3.17;;;;;;;;;;5034926;28;20040;-84
2022/06/20 11:52:17;;;;;;;5.38;2.60;;;;;;;;;;5032796;28;20045;-84
2022/06/20 11:54:53;;;;;;;7.78;3.20;;;;;;;;;;5040338;28;20434;-83
2022/06/20 11:57:34;;;;;;;7.55;3.30;;;;;;;;;;5020953;28;20111;-84
2022/06/20 12:00:23;;;;;;;5.57;2.90;;;;;;;;;;5030009;28;20061;-84
2022/06/20 12:02:59;;;;;;;8.05;2.90;;;;;;;;;;5038370;28;20074;-85
2022/06/20 12:05:34;;;;;;;8.15;3.75;;;;;;;;;;5054077;28;20090;-83
2022/06/20 12:08:10;;;;;;;7.25;3.15;;;;;;;;;;5040790;28;20028;-85
2022/06/20 12:10:43;;;;;;;9.93;3.47;;;;;;;;;;5018961;28;20030;-84
2022/06/20 12:13:40;;;;;;;8.80;3.63;;;;;;;;;;5020231;28;20020;-85
2022/06/20 12:16:37;;;;;;;9.10;3.35;;;;;;;;;;5007470;28;20063;-85
2022/06/20 12:24:49;;;;;;;8.10;2.80;;;;;;;;;;5039511;28;20051;-85
2022/06/20 12:27:19;;;;;;;7.50;2.83;;;;;;;;;;5036353;28;20328;-84
2022/06/20 12:29:47;;;;;;;9.43;2.80;;;;;;;;;;5022789;28;20098;-84
2022/06/20 12:32:34;;;;;;;3.55;2.42;;;;;;;;;;5025433;28;20083;-84
2022/06/20 12:35:34;;;;;;;9.57;3.42;;;;;;;;;;5043473;28;20090;-85
2022/06/20 12:38:19;;;;;;;7.38;2.83;;;;;;;;;;5035678;28;20368;-85
2022/06/20 12:40:50;;;;;;;8.27;2.78;;;;;;;;;;5038439;28;20027;-85
2022/06/20 12:43:20;;;;;;;7.13;3.33;;;;;;;;;;5028373;28;20141;-83
2022/06/20 12:46:10;;;;;;;9.40;3.13;;;;;;;;;;5043537;28;20498;-85
2022/06/20 12:48:53;;;;;;;10.20;3.30;;;;;;;;;;5023236;28;20029;-85
2022/06/20 12:51:34;;;;;;;6.15;2.88;;;;;;;;;;5043988;28;20029;-84
2022/06/20 13:08:11;;;;;;;7.03;3.40;;;;;;;;;;4956831;28;20552;-86
2022/06/20 13:10:51;;;;;;;9.30;3.50;;;;;;;;;;4962751;28;20122;-85
2022/06/20 13:13:23;;;;;;;5.75;2.72;;;;;;;;;;5019983;28;20059;-85
2022/06/20 13:15:51;;;;;;;6.18;3.20;;;;;;;;;;5022816;28;20039;-85
2022/06/20 13:18:55;;;;;;;7.20;2.95;;;;;;;;;;5038911;28;20155;-87
2022/06/20 13:21:33;;;;;;;7.40;3.13;;;;;;;;;;4953292;28;20031;-84
2022/06/20 13:24:10;;;;;;;9.20;3.08;;;;;;;;;;5033967;28;20048;-85
2022/06/20 13:26:52;;;;;;;5.75;2.50;;;;;;;;;;5042096;28;20103;-85
2022/06/20 13:29:25;;;;;;;6.93;2.85;;;;;;;;;;5012840;28;20083;-85
2022/06/20 13:32:02;;;;;;;5.15;2.50;;;;;;;;;;5032286;28;20493;-85
2022/06/20 13:34:41;;;;;;;8.07;2.67;;;;;;;;;;5034161;28;20033;-87
2022/06/20 13:37:34;;;;;;;4.15;2.20;;;;;;;;;;5039728;28;20021;-86
2022/06/20 13:40:42;;;;;;;4.22;2.50;;;;;;;;;;5017754;28;20061;-85
2022/06/20 13:43:45;;;;;;;3.97;2.83;;;;;;;;;;5026885;28;20040;-85
2022/06/20 13:46:39;;;;;;;8.38;2.83;;;;;;;;;;5018769;28;20447;-85
2022/06/20 13:49:45;;;;;;;3.80;2.50;;;;;;;;;;5016771;28;20029;-83
2022/06/20 13:59:18;;;;;;;8.15;2.55;;;;;;;;;;5030738;28;20140;-84
2022/06/20 14:01:59;;;;;;;3.63;2.60;;;;;;;;;;5037771;28;20089;-84
2022/06/20 14:04:29;;;;;;;7.55;2.42;;;;;;;;;;5040355;28;20110;-85
2022/06/20 14:07:01;;;;;;;5.07;2.22;;;;;;;;;;5038258;28;20075;-84
2022/06/20 14:09:38;;;;;;;3.92;2.45;;;;;;;;;;5034696;28;20021;-85
2022/06/20 14:12:07;;;;;;;3.47;2.28;;;;;;;;;;5022762;28;20032;-84
2022/06/20 14:14:37;;;;;;;6.85;2.50;;;;;;;;;;5036175;28;20483;-85
2022/06/20 14:17:14;;;;;;;4.32;2.25;;;;;;;;;;5033560;28;20074;-85
2022/06/20 14:19:47;;;;;;;4.05;2.85;;;;;;;;;;5016665;28;20091;-85
2022/06/20 14:22:34;;;;;;;5.38;2.30;;;;;;;;;;5033993;28;20382;-84
2022/06/20 14:25:03;;;;;;;6.97;2.53;;;;;;;;;;5033648;28;20055;-85
2022/06/20 14:27:31;;;;;;;4.15;2.05;;;;;;;;;;5015678;28;20029;-85
2022/06/20 14:30:15;;;;;;;8.13;2.80;;;;;;;;;;5032932;28;20397;-85
2022/06/20 14:32:45;;;;;;;6.28;2.80;;;;;;;;;;5013997;28;20033;-85
2022/06/20 14:35:25;;;;;;;8.45;2.35;;;;;;;;;;5036874;28;20099;-85
2022/06/20 14:37:58;;;;;;;4.70;2.70;;;;;;;;;;5035977;28;20028;-86
2022/06/20 14:40:47;;;;;;;4.18;2.10;;;;;;;;;;5032873;28;20033;-85
2022/06/20 14:43:44;;;;;;;2.75;2.10;;;;;;;;;;5017207;28;20033;-88
2022/06/20 14:46:09;;;;;;;8.93;2.33;;;;;;;;;;5024714;28;20170;-85
2022/06/20 14:48:47;;;;;;;6.70;2.50;;;;;;;;;;5036977;28;20067;-84
2022/06/20 14:51:29;;;;;;;7.75;2.88;;;;;;;;;;5033595;28;20025;-83
2022/06/20 14:54:03;;;;;;;2.58;2.28;;;;;;;;;;5038274;28;20029;-84
2022/06/20 14:56:37;;;;;;;3.40;2.35;;;;;;;;;;5025927;28;20032;-87
2022/06/20 14:59:18;;;;;;;3.33;1.83;;;;;;;;;;5030183;28;20478;-86
2022/06/20 15:02:33;;;;;;;8.73;2.47;;;;;;;;;;5030588;28;20028;-86
2022/06/20 15:05:15;;;;;;;4.57;2.03;;;;;;;;;;4957058;28;20504;-84
2022/06/20 15:07:47;;;;;;;5.95;2.58;;;;;;;;;;5038719;28;20036;-85
2022/06/20 15:10:16;;;;;;;2.97;2.22;;;;;;;;;;5032982;28;20079;-86
2022/06/20 15:12:45;;;;;;;3.40;2.30;;;;;;;;;;5049664;28;20032;-88
2022/06/20 15:15:12;;;;;;;4.15;2.15;;;;;;;;;;5055902;28;20581;-85
2022/06/20 15:18:04;;;;;;;3.88;2.00;;;;;;;;;;5047683;28;20452;-86
2022/06/20 15:20:38;;;;;;;3.63;2.25;;;;;;;;;;5043131;28;20043;-86
2022/06/20 15:23:14;;;;;;;6.88;2.28;;;;;;;;;;5039380;28;20120;-85
2022/06/20 15:25:45;;;;;;;2.38;2.00;;;;;;;;;;5039861;28;20025;-86
2022/06/20 15:28:29;;;;;;;6.97;2.38;;;;;;;;;;5019147;28;20046;-86
2022/06/20 15:31:05;;;;;;;4.70;2.10;;;;;;;;;;5028880;28;20040;-86
2022/06/20 15:33:34;;;;;;;5.25;2.22;;;;;;;;;;5040688;28;20295;-85
2022/06/20 15:36:15;;;;;;;4.05;2.53;;;;;;;;;;5027488;28;20032;-85
2022/06/20 15:38:53;;;;;;;4.65;2.33;;;;;;;;;;5034318;28;20087;-85
2022/06/20 15:41:24;;;;;;;4.25;2.22;;;;;;;;;;5036714;28;20025;-85
2022/06/20 15:43:56;;;;;;;5.13;2.50;;;;;;;;;;5041149;28;20076;-85
2022/06/20 15:46:45;;;;;;;4.97;2.15;;;;;;;;;;5046055;28;20047;-86
2022/06/20 15:49:43;;;;;;;3.63;2.17;;;;;;;;;;5039456;28;20466;-85
2022/06/20 15:52:16;;;;;;;4.68;2.38;;;;;;;;;;5027059;28;20033;-84
2022/06/20 15:55:00;;;;;;;5.97;2.38;;;;;;;;;;5044721;28;20609;-85
2022/06/20 15:57:29;;;;;;;2.42;2.20;;;;;;;;;;5049966;28;20044;-85
2022/06/20 16:00:20;;;;;;;4.68;2.22;;;;;;;;;;5032220;28;20028;-86
2022/06/20 16:03:09;;;;;;;6.70;2.30;;;;;;;;;;5030959;28;20025;-85
2022/06/20 16:05:58;;;;;;;4.07;2.15;;;;;;;;;;5044405;28;20028;-86
2022/06/20 16:08:54;;;;;;;3.22;2.22;;;;;;;;;;5040498;28;20112;-86
2022/06/20 16:11:39;;;;;;;3.00;2.35;;;;;;;;;;5021825;28;20418;-86
2022/06/20 16:14:07;;;;;;;2.35;2.03;;;;;;;;;;5036782;28;20035;-85
2022/06/20 16:16:35;;;;;;;3.95;2.15;;;;;;;;;;5032402;28;20164;-86
2022/06/20 16:19:05;;;;;;;7.70;3.03;;;;;;;;;;5013565;28;20022;-85
2022/06/20 16:21:34;;;;;;;5.15;2.20;;;;;;;;;;5026273;28;20022;-85
2022/06/20 16:24:04;;;;;;;3.50;2.35;;;;;;;;;;5042576;28;20026;-85
2022/06/20 16:26:42;;;;;;;2.47;2.15;;;;;;;;;;5028758;28;20116;-85
2022/06/20 16:29:25;;;;;;;2.65;2.20;;;;;;;;;;5017794;28;20539;-85
2022/06/20 16:32:13;;;;;;;3.65;2.20;;;;;;;;;;5035271;28;20030;-85
2022/06/20 16:34:46;;;;;;;2.63;2.10;;;;;;;;;;5036723;28;20479;-86